createdAt,value
2019-05-05T00:02:46.450Z,5.60
2019-05-05T00:05:35.353Z,5.50
2019-05-05T00:08:20.316Z,5.60
2019-05-05T00:11:25.022Z,5.60
2019-05-05T00:17:32.355Z,5.60
2019-05-05T00:20:18.666Z,5.60
2019-05-05T00:23:05.346Z,5.70
2019-05-05T00:25:49.844Z,5.70
2019-05-05T00:28:35.441Z,5.50
2019-05-05T00:31:20.685Z,5.60
2019-05-05T00:34:05.830Z,5.60
2019-05-05T00:36:50.760Z,5.30
2019-05-05T00:39:35.848Z,5.40
2019-05-05T00:42:20.573Z,5.20
2019-05-05T00:45:05.794Z,5.10
2019-05-05T00:48:10.689Z,5.20
2019-05-05T00:50:55.622Z,5.10
2019-05-05T00:53:40.264Z,5.10
2019-05-05T00:56:25.638Z,5.10
2019-05-05T00:59:14.552Z,5.10
2019-05-05T01:02:18.918Z,5.00
2019-05-05T01:08:16.074Z,5.30
2019-05-05T01:11:01.026Z,5.00
2019-05-05T01:13:45.717Z,5.10
2019-05-05T01:16:30.688Z,5.00
2019-05-05T01:19:16.045Z,5.10
2019-05-05T01:22:01.088Z,5.00
2019-05-05T01:24:46.043Z,5.00
2019-05-05T01:27:31.555Z,4.90
2019-05-05T01:36:04.712Z,4.90
2019-05-05T01:38:55.431Z,4.30
2019-05-05T01:41:45.330Z,4.20
2019-05-05T01:44:30.212Z,4.30
2019-05-05T01:47:15.480Z,4.50
2019-05-05T01:52:45.213Z,4.50
2019-05-05T01:55:30.112Z,4.70
2019-05-05T01:58:15.265Z,4.60
2019-05-05T02:01:00.472Z,4.50
2019-05-05T02:03:45.578Z,4.50
2019-05-05T02:06:30.556Z,4.40
2019-05-05T02:09:16.050Z,4.20
2019-05-05T02:12:01.117Z,4.20
2019-05-05T02:14:46.195Z,4.40
2019-05-05T02:17:31.143Z,4.50
2019-05-05T02:20:28.599Z,4.50
2019-05-05T02:23:04.673Z,4.40
2019-05-05T02:25:49.983Z,4.40
2019-05-05T02:28:41.472Z,4.30
2019-05-05T02:34:56.214Z,4.30
2019-05-05T02:37:47.780Z,4.20
2019-05-05T02:40:34.988Z,4.10
2019-05-05T02:43:19.028Z,4.10
2019-05-05T02:46:27.289Z,4.20
2019-05-05T02:49:11.620Z,4.20
2019-05-05T02:51:57.045Z,4.30
2019-05-05T02:54:41.759Z,4.40
2019-05-05T02:57:26.843Z,4.40
2019-05-05T03:00:34.521Z,4.30
2019-05-05T03:03:26.905Z,4.30
2019-05-05T03:06:11.690Z,4.20
2019-05-05T03:08:56.311Z,4.20
2019-05-05T03:11:43.564Z,4.10
2019-05-05T03:14:28.443Z,4.10
2019-05-05T03:17:14.325Z,4.10
2019-05-05T03:19:59.580Z,4.10
2019-05-05T03:22:44.856Z,4.00
2019-05-05T03:25:29.695Z,3.80
2019-05-05T03:28:14.828Z,3.70
2019-05-05T03:30:59.954Z,3.70
2019-05-05T03:33:46.104Z,3.60
2019-05-05T03:36:31.343Z,3.70
2019-05-05T03:39:23.642Z,3.60
2019-05-05T03:45:44.770Z,3.50
2019-05-05T03:48:29.736Z,3.60
2019-05-05T03:51:20.479Z,3.50
2019-05-05T03:54:01.853Z,3.30
2019-05-05T03:56:47.126Z,3.50
2019-05-05T03:59:33.547Z,3.70
2019-05-05T04:05:30.495Z,3.40
2019-05-05T04:08:15.344Z,3.40
2019-05-05T04:11:00.274Z,3.30
2019-05-05T04:13:45.819Z,3.60
2019-05-05T04:16:36.902Z,3.70
2019-05-05T04:19:23.712Z,3.80
2019-05-05T04:22:09.185Z,3.50
2019-05-05T04:24:54.301Z,3.40
2019-05-05T04:27:39.186Z,3.40
2019-05-05T04:30:24.039Z,3.30
2019-05-05T04:33:09.450Z,3.30
2019-05-05T04:35:54.594Z,3.40
2019-05-05T04:38:39.645Z,3.30
2019-05-05T04:41:24.608Z,3.50
2019-05-05T04:44:09.530Z,3.30
2019-05-05T04:46:58.735Z,3.50
2019-05-05T04:49:49.927Z,3.50
2019-05-05T04:52:35.284Z,3.50
2019-05-05T04:55:20.123Z,3.50
2019-05-05T04:58:04.983Z,3.70
2019-05-05T05:00:50.272Z,3.90
2019-05-05T05:06:49.199Z,3.80
2019-05-05T05:09:34.554Z,3.90
2019-05-05T05:12:19.798Z,3.90
2019-05-05T05:15:04.751Z,4.00
2019-05-05T05:17:56.473Z,4.10
2019-05-05T05:20:41.109Z,4.10
2019-05-05T05:23:26.129Z,4.30
2019-05-05T05:26:10.973Z,4.50
2019-05-05T05:28:56.035Z,4.50
2019-05-05T05:31:41.492Z,4.40
2019-05-05T05:34:26.273Z,4.40
2019-05-05T05:37:13.478Z,4.50
2019-05-05T05:40:05.769Z,4.50
2019-05-05T05:49:04.430Z,4.80
2019-05-05T05:51:49.061Z,4.90
2019-05-05T05:54:34.146Z,5.00
2019-05-05T05:57:19.071Z,5.20
2019-05-05T06:00:05.040Z,5.20
2019-05-05T06:02:50.108Z,5.20
2019-05-05T06:05:35.515Z,5.30
2019-05-05T06:08:20.382Z,5.40
2019-05-05T06:11:05.486Z,5.60
2019-05-05T06:13:50.884Z,5.30
2019-05-05T06:16:35.894Z,5.40
2019-05-05T06:19:20.646Z,5.60
2019-05-05T06:22:06.077Z,5.60
2019-05-05T06:24:50.720Z,5.70
2019-05-05T06:27:23.664Z,5.90
2019-05-05T06:30:37.055Z,5.70
2019-05-05T06:33:24.175Z,5.90
2019-05-05T06:36:09.150Z,6.10
2019-05-05T06:38:54.484Z,6.10
2019-05-05T06:41:46.240Z,6.10
2019-05-05T06:44:36.941Z,6.40
2019-05-05T06:47:25.740Z,6.40
2019-05-05T06:50:10.209Z,6.20
2019-05-05T06:52:55.021Z,6.40
2019-05-05T06:55:40.186Z,6.50
2019-05-05T07:09:59.393Z,6.90
2019-05-05T07:12:44.569Z,7.00
2019-05-05T07:15:29.711Z,6.90
2019-05-05T07:18:03.589Z,6.80
2019-05-05T07:20:57.865Z,7.00
2019-05-05T07:23:44.605Z,7.00
2019-05-05T07:26:29.439Z,7.00
2019-05-05T07:29:17.817Z,7.30
2019-05-05T07:32:01.157Z,7.50
2019-05-05T07:37:49.727Z,7.50
2019-05-05T07:40:34.669Z,7.50
2019-05-05T07:43:20.918Z,7.40
2019-05-05T07:46:05.634Z,7.70
2019-05-05T07:48:50.176Z,7.80
2019-05-05T07:51:24.267Z,7.70
2019-05-05T07:54:36.425Z,7.70
2019-05-05T07:57:23.685Z,7.80
2019-05-05T07:59:55.637Z,7.70
2019-05-05T08:02:49.000Z,7.80
2019-05-05T08:05:33.918Z,8.00
2019-05-05T08:08:19.183Z,8.30
2019-05-05T08:11:04.802Z,8.40
2019-05-05T08:13:49.869Z,8.40
2019-05-05T08:16:54.826Z,8.10
2019-05-05T08:19:44.275Z,8.50
2019-05-05T08:22:38.482Z,8.80
2019-05-05T08:25:45.366Z,8.70
2019-05-05T08:28:35.860Z,8.60
2019-05-05T08:31:40.672Z,8.40
2019-05-05T08:34:25.769Z,8.70
2019-05-05T08:37:11.422Z,9.00
2019-05-05T08:39:56.271Z,9.20
2019-05-05T08:42:41.240Z,8.80
2019-05-05T08:45:26.803Z,8.90
2019-05-05T08:48:14.222Z,9.00
2019-05-05T08:50:59.927Z,9.10
2019-05-05T08:53:48.400Z,9.20
2019-05-05T08:56:34.385Z,9.60
2019-05-05T08:59:19.332Z,9.50
2019-05-05T09:02:04.647Z,9.50
2019-05-05T09:04:49.373Z,9.40
2019-05-05T09:07:34.531Z,9.20
2019-05-05T09:10:19.605Z,9.30
2019-05-05T09:13:04.747Z,9.70
2019-05-05T09:15:49.917Z,9.80
2019-05-05T09:18:37.959Z,9.40
2019-05-05T09:21:23.987Z,9.20
2019-05-05T09:30:19.226Z,9.20
2019-05-05T09:33:04.149Z,9.50
2019-05-05T09:35:49.605Z,9.90
2019-05-05T09:38:34.879Z,9.70
2019-05-05T09:41:20.221Z,9.60
2019-05-05T09:44:05.326Z,9.30
2019-05-05T09:46:49.984Z,9.30
2019-05-05T09:49:34.849Z,9.30
2019-05-05T09:52:20.038Z,9.30
2019-05-05T09:55:04.998Z,9.50
2019-05-05T09:57:50.112Z,10.00
2019-05-05T10:00:39.704Z,10.30
2019-05-05T10:03:24.911Z,10.90
2019-05-05T10:06:09.646Z,10.60
2019-05-05T10:08:55.097Z,10.60
2019-05-05T10:11:40.020Z,10.40
2019-05-05T10:14:25.285Z,10.00
2019-05-05T10:17:10.006Z,10.40
2019-05-05T10:19:55.356Z,10.50
2019-05-05T10:22:40.323Z,10.30
2019-05-05T10:25:44.900Z,10.50
2019-05-05T10:28:29.784Z,10.20
2019-05-05T10:31:14.718Z,10.30
2019-05-05T10:34:04.519Z,10.00
2019-05-05T10:36:50.276Z,10.30
2019-05-05T10:39:43.989Z,10.70
2019-05-05T10:42:55.471Z,11.00
2019-05-05T10:45:40.074Z,11.10
2019-05-05T10:48:24.952Z,11.20
2019-05-05T10:51:09.997Z,11.00
2019-05-05T10:53:55.412Z,11.00
2019-05-05T10:56:40.422Z,10.70
2019-05-05T10:59:25.495Z,10.60
2019-05-05T11:02:10.472Z,10.40
2019-05-05T11:04:55.499Z,10.40
2019-05-05T11:07:40.651Z,10.70
2019-05-05T11:10:25.773Z,10.50
2019-05-05T11:12:57.576Z,10.60
2019-05-05T11:15:49.110Z,10.80
2019-05-05T11:18:34.471Z,11.00
2019-05-05T11:21:20.122Z,11.00
2019-05-05T11:24:04.885Z,11.20
2019-05-05T11:26:49.540Z,11.40
2019-05-05T11:29:37.367Z,11.30
2019-05-05T11:32:44.000Z,11.20
2019-05-05T11:36:04.566Z,11.00
2019-05-05T11:39:01.145Z,10.80
2019-05-05T11:41:46.091Z,11.40
2019-05-05T11:44:33.546Z,11.90
2019-05-05T11:47:18.376Z,12.10
2019-05-05T11:50:04.391Z,11.90
2019-05-05T11:52:49.398Z,11.50
2019-05-05T11:55:34.936Z,11.70
2019-05-05T11:58:19.617Z,11.60
2019-05-05T12:01:04.633Z,11.30
2019-05-05T12:03:49.765Z,11.20
2019-05-05T12:06:21.588Z,11.20
2019-05-05T12:09:09.215Z,11.20
2019-05-05T12:11:54.793Z,11.30
2019-05-05T12:14:39.717Z,11.30
2019-05-05T12:20:29.824Z,10.90
2019-05-05T12:23:14.669Z,10.70
2019-05-05T12:29:29.566Z,11.10
2019-05-05T12:32:14.927Z,10.90
2019-05-05T12:35:00.066Z,11.10
2019-05-05T12:37:45.167Z,11.10
2019-05-05T12:40:30.151Z,11.40
2019-05-05T12:43:15.170Z,11.50
2019-05-05T12:49:06.128Z,11.70
2019-05-05T12:51:51.632Z,12.10
2019-05-05T12:54:24.576Z,12.10
2019-05-05T12:57:36.668Z,11.70
2019-05-05T13:00:21.385Z,11.30
2019-05-05T13:03:05.937Z,11.10
2019-05-05T13:05:53.457Z,11.10
2019-05-05T13:08:37.549Z,11.10
2019-05-05T13:11:23.773Z,11.00
2019-05-05T13:14:08.626Z,11.00
2019-05-05T13:16:56.024Z,11.40
2019-05-05T13:19:59.641Z,11.60
2019-05-05T13:23:04.844Z,11.70
2019-05-05T13:28:55.726Z,12.20
2019-05-05T13:31:40.927Z,11.80
2019-05-05T13:34:25.179Z,11.60
2019-05-05T13:37:10.201Z,11.50
2019-05-05T13:39:55.445Z,11.30
2019-05-05T13:42:40.231Z,11.30
2019-05-05T13:48:33.781Z,11.30
2019-05-05T13:51:18.554Z,11.70
2019-05-05T13:54:03.580Z,11.30
2019-05-05T13:56:48.760Z,11.30
2019-05-05T13:59:34.245Z,11.40
2019-05-05T14:02:19.177Z,11.60
2019-05-05T14:05:04.583Z,11.80
2019-05-05T14:07:49.146Z,11.80
2019-05-05T14:10:34.210Z,12.10
2019-05-05T14:13:19.053Z,12.10
2019-05-05T14:16:04.231Z,11.70
2019-05-05T14:18:53.601Z,11.50
2019-05-05T14:21:38.525Z,11.60
2019-05-05T14:27:28.960Z,11.60
2019-05-05T14:30:34.218Z,11.50
2019-05-05T14:33:23.546Z,11.40
2019-05-05T14:36:27.930Z,11.40
2019-05-05T14:39:14.789Z,11.60
2019-05-05T14:41:59.398Z,11.30
2019-05-05T14:44:44.739Z,11.30
2019-05-05T14:47:30.071Z,11.30
2019-05-05T14:50:14.943Z,11.20
2019-05-05T14:53:00.348Z,11.20
2019-05-05T14:55:45.123Z,11.30
2019-05-05T14:58:29.692Z,11.40
2019-05-05T15:01:14.491Z,11.50
2019-05-05T15:03:59.416Z,11.40
2019-05-05T15:10:28.421Z,11.40
2019-05-05T15:13:14.763Z,11.30
2019-05-05T15:16:00.044Z,11.50
2019-05-05T15:18:45.060Z,11.60
2019-05-05T15:21:29.949Z,11.90
2019-05-05T15:24:15.081Z,12.00
2019-05-05T15:27:00.184Z,11.90
2019-05-05T15:29:44.992Z,11.90
2019-05-05T15:32:30.445Z,11.50
2019-05-05T15:35:04.016Z,11.60
2019-05-05T15:37:59.530Z,11.70
2019-05-05T15:40:46.507Z,11.90
2019-05-05T15:43:33.500Z,11.90
2019-05-05T15:46:18.801Z,12.00
2019-05-05T15:49:04.320Z,12.00
2019-05-05T15:51:49.183Z,12.30
2019-05-05T15:54:34.352Z,12.30
2019-05-05T15:57:19.353Z,12.20
2019-05-05T16:00:04.698Z,12.20
2019-05-05T16:02:49.711Z,12.10
2019-05-05T16:05:34.895Z,12.00
2019-05-05T16:08:19.839Z,12.10
2019-05-05T16:11:04.939Z,12.00
2019-05-05T16:13:49.679Z,12.00
2019-05-05T16:16:56.097Z,12.00
2019-05-05T16:19:48.512Z,11.90
2019-05-05T16:22:43.727Z,11.70
2019-05-05T16:25:36.430Z,11.60
2019-05-05T16:28:21.324Z,11.50
2019-05-05T16:31:06.360Z,11.70
2019-05-05T16:33:51.576Z,11.90
2019-05-05T16:36:36.864Z,12.00
2019-05-05T16:39:21.893Z,12.10
2019-05-05T16:42:07.018Z,12.00
2019-05-05T16:44:53.831Z,12.10
2019-05-05T16:47:39.170Z,12.20
2019-05-05T16:50:25.066Z,12.00
2019-05-05T16:56:28.042Z,12.20
2019-05-05T16:59:13.896Z,12.00
2019-05-05T17:02:00.491Z,11.90
2019-05-05T17:04:45.920Z,11.90
2019-05-05T17:07:30.675Z,11.70
2019-05-05T17:10:18.887Z,11.60
2019-05-05T17:16:27.959Z,11.50
2019-05-05T17:19:16.807Z,11.70
2019-05-05T17:25:08.154Z,11.70
2019-05-05T17:27:54.546Z,11.70
2019-05-05T17:30:39.757Z,11.70
2019-05-05T17:33:25.066Z,11.60
2019-05-05T17:36:10.873Z,11.60
2019-05-05T17:38:55.751Z,11.60
2019-05-05T17:42:00.501Z,11.60
2019-05-05T17:45:05.495Z,11.60
2019-05-05T17:47:57.816Z,11.70
2019-05-05T17:51:04.288Z,11.60
2019-05-05T17:53:59.540Z,11.60
2019-05-05T17:56:44.372Z,11.60
2019-05-05T17:59:29.649Z,11.70
2019-05-05T18:02:14.541Z,11.70
2019-05-05T18:04:59.730Z,11.70
2019-05-05T18:07:46.323Z,11.70
2019-05-05T18:10:39.388Z,11.70
2019-05-05T18:13:30.328Z,11.50
2019-05-05T18:16:17.064Z,11.60
2019-05-05T18:19:04.500Z,11.40
2019-05-05T18:21:49.255Z,11.50
2019-05-05T18:24:20.998Z,11.50
2019-05-05T18:27:14.072Z,11.50
2019-05-05T18:30:05.611Z,11.40
2019-05-05T18:32:50.389Z,11.50
2019-05-05T18:35:35.385Z,11.40
2019-05-05T18:38:20.420Z,11.30
2019-05-05T18:41:11.483Z,11.30
2019-05-05T18:44:03.840Z,11.20
2019-05-05T18:47:18.342Z,11.20
2019-05-05T18:50:04.116Z,11.30
2019-05-05T18:52:48.605Z,11.30
2019-05-05T18:55:20.849Z,11.30
2019-05-05T18:58:12.258Z,11.30
2019-05-05T19:01:03.926Z,11.20
2019-05-05T19:04:15.159Z,11.20
2019-05-05T19:07:19.373Z,11.20
2019-05-05T19:10:04.357Z,11.10
2019-05-05T19:12:50.946Z,10.90
2019-05-05T19:15:36.216Z,11.00
2019-05-05T19:18:21.300Z,10.80
2019-05-05T19:24:11.604Z,10.70
2019-05-05T19:26:57.124Z,10.60
2019-05-05T19:29:45.974Z,10.70
2019-05-05T19:32:15.431Z,10.60
2019-05-05T19:35:00.547Z,10.50
2019-05-05T19:37:45.610Z,10.60
2019-05-05T19:40:30.808Z,10.50
2019-05-05T19:43:15.671Z,10.40
2019-05-05T19:46:01.566Z,10.30
2019-05-05T19:48:46.675Z,10.40
2019-05-05T19:51:33.913Z,10.30
2019-05-05T19:54:18.821Z,10.30
2019-05-05T19:57:04.004Z,10.30
2019-05-05T19:59:49.264Z,10.20
2019-05-05T20:02:34.215Z,10.20
2019-05-05T20:05:19.226Z,10.10
2019-05-05T20:08:04.383Z,10.10
2019-05-05T20:10:49.595Z,10.00
2019-05-05T20:13:34.452Z,10.00
2019-05-05T20:16:26.279Z,10.00
2019-05-05T20:19:10.657Z,10.00
2019-05-05T20:21:55.724Z,9.90
2019-05-05T20:24:40.736Z,9.90
2019-05-05T20:27:25.914Z,9.80
2019-05-05T20:30:11.257Z,9.70
2019-05-05T20:33:04.080Z,9.60
2019-05-05T20:36:03.649Z,9.50
2019-05-05T20:38:58.930Z,9.50
2019-05-05T20:41:44.645Z,9.60
2019-05-05T20:44:29.056Z,9.60
2019-05-05T20:47:14.196Z,9.60
2019-05-05T20:49:59.211Z,9.60
2019-05-05T20:52:44.345Z,9.60
2019-05-05T20:55:29.529Z,9.60
2019-05-05T20:58:14.600Z,9.70
2019-05-05T21:00:59.676Z,9.60
2019-05-05T21:03:44.867Z,9.60
2019-05-05T21:06:29.969Z,9.80
2019-05-05T21:09:15.176Z,9.80
2019-05-05T21:12:00.261Z,10.00
2019-05-05T21:14:45.161Z,9.90
2019-05-05T21:17:30.140Z,9.90
2019-05-05T21:20:15.033Z,9.80
2019-05-05T21:23:05.218Z,9.70
2019-05-05T21:25:53.965Z,9.80
2019-05-05T21:28:38.555Z,9.70
2019-05-05T21:31:23.965Z,9.60
2019-05-05T21:34:08.381Z,9.50
2019-05-05T21:36:54.185Z,9.50
2019-05-05T21:39:38.693Z,9.50
2019-05-05T21:42:24.194Z,9.40
2019-05-05T21:45:08.903Z,9.50
2019-05-05T21:47:55.002Z,9.40
2019-05-05T21:50:46.020Z,9.30
2019-05-05T21:53:37.392Z,9.00
2019-05-05T21:56:41.550Z,8.90
2019-05-05T21:59:26.492Z,8.90
2019-05-05T22:02:11.557Z,8.60
2019-05-05T22:04:57.102Z,8.60
2019-05-05T22:07:41.523Z,8.60
2019-05-05T22:10:26.669Z,8.40
2019-05-05T22:13:14.229Z,8.40
2019-05-05T22:15:58.636Z,8.40
2019-05-05T22:18:44.646Z,8.30
2019-05-05T22:24:39.628Z,8.20
2019-05-05T22:27:24.952Z,8.20
2019-05-05T22:33:13.737Z,8.10
2019-05-05T22:35:59.068Z,8.10
2019-05-05T22:38:45.752Z,8.00
2019-05-05T22:41:30.935Z,8.00
2019-05-05T22:44:16.918Z,7.90
2019-05-05T22:47:01.335Z,8.00
2019-05-05T22:49:46.564Z,8.10
2019-05-05T22:52:31.612Z,8.10
2019-05-05T22:55:20.229Z,8.10
2019-05-05T22:58:05.050Z,8.10
2019-05-05T23:00:49.624Z,8.10
2019-05-05T23:06:40.367Z,8.00
2019-05-05T23:09:25.128Z,8.10
2019-05-05T23:12:09.904Z,8.00
2019-05-05T23:14:55.153Z,8.10
2019-05-05T23:17:43.702Z,7.90
2019-05-05T23:20:35.150Z,7.90
2019-05-05T23:23:27.430Z,7.70
2019-05-05T23:26:15.747Z,7.70
2019-05-05T23:29:00.695Z,7.70
2019-05-05T23:31:33.560Z,7.50
2019-05-05T23:34:46.878Z,7.60
2019-05-05T23:37:34.211Z,7.60
2019-05-05T23:40:24.608Z,7.50
2019-05-05T23:43:13.811Z,7.60
2019-05-05T23:45:58.748Z,7.70
2019-05-05T23:48:44.236Z,7.80
2019-05-05T23:51:28.891Z,7.80
2019-05-05T23:54:14.007Z,7.80
2019-05-05T23:56:58.266Z,7.80
2019-05-05T23:59:44.122Z,7.80
